createdAt,value
2022-11-09T00:01:30.606Z,4.10
2022-11-09T00:04:01.839Z,4.50
2022-11-09T00:06:31.689Z,4.20
2022-11-09T00:11:38.243Z,3.90
2022-11-09T00:14:06.745Z,4.10
2022-11-09T00:16:35.165Z,4.40
2022-11-09T00:19:03.482Z,4.20
2022-11-09T00:21:31.751Z,4.10
2022-11-09T00:24:00.225Z,4.60
2022-11-09T00:26:28.487Z,4.40
2022-11-09T00:28:56.771Z,4.40
2022-11-09T00:31:25.335Z,4.50
2022-11-09T00:33:56.153Z,4.60
2022-11-09T00:36:26.304Z,4.50
2022-11-09T00:38:57.041Z,4.60
2022-11-09T00:41:26.687Z,4.00
2022-11-09T00:43:55.002Z,4.40
2022-11-09T00:46:23.778Z,4.30
2022-11-09T00:48:54.533Z,4.40
2022-11-09T00:51:22.793Z,4.70
2022-11-09T00:53:54.870Z,4.10
2022-11-09T00:56:24.749Z,4.40
2022-11-09T00:58:55.996Z,4.40
2022-11-09T01:01:25.374Z,4.30
2022-11-09T01:03:54.223Z,4.40
2022-11-09T01:06:25.524Z,4.70
2022-11-09T01:08:54.508Z,4.50
2022-11-09T01:11:23.416Z,4.10
2022-11-09T01:13:52.905Z,4.40
2022-11-09T01:16:24.048Z,4.90
2022-11-09T01:18:56.940Z,4.50
2022-11-09T01:21:27.317Z,4.30
2022-11-09T01:23:56.932Z,4.20
2022-11-09T01:26:25.570Z,3.90
2022-11-09T01:28:53.832Z,4.00
2022-11-09T01:31:23.453Z,4.70
2022-11-09T01:33:51.682Z,4.10
2022-11-09T01:36:22.556Z,4.20
2022-11-09T01:38:51.904Z,4.20
2022-11-09T01:41:26.284Z,3.90
2022-11-09T01:44:19.175Z,4.00
2022-11-09T01:47:04.601Z,4.50
2022-11-09T01:49:48.902Z,4.00
2022-11-09T01:52:22.602Z,4.10
2022-11-09T01:54:55.572Z,4.30
2022-11-09T01:57:34.756Z,3.90
2022-11-09T02:00:07.770Z,4.30
2022-11-09T02:02:37.921Z,4.00
2022-11-09T02:05:10.995Z,3.90
2022-11-09T02:07:41.281Z,3.70
2022-11-09T02:10:15.154Z,3.90
2022-11-09T02:12:45.006Z,4.30
2022-11-09T02:17:44.039Z,4.40
2022-11-09T02:20:14.618Z,4.70
2022-11-09T02:22:43.035Z,5.10
2022-11-09T02:25:13.721Z,4.80
2022-11-09T02:27:43.661Z,4.70
2022-11-09T02:30:13.908Z,4.70
2022-11-09T02:32:42.245Z,4.60
2022-11-09T02:35:11.331Z,4.50
2022-11-09T02:37:43.119Z,4.70
2022-11-09T02:40:18.427Z,4.70
2022-11-09T02:42:46.990Z,4.50
2022-11-09T02:45:15.312Z,4.70
2022-11-09T02:47:43.584Z,4.70
2022-11-09T02:50:11.972Z,4.70
2022-11-09T02:52:40.218Z,4.30
2022-11-09T02:55:08.997Z,4.70
2022-11-09T02:57:37.407Z,4.40
2022-11-09T03:00:06.297Z,4.80
2022-11-09T03:02:34.877Z,4.50
2022-11-09T03:05:04.112Z,4.80
2022-11-09T03:07:32.968Z,4.70
2022-11-09T03:10:01.352Z,4.50
2022-11-09T03:12:29.717Z,4.70
2022-11-09T03:15:02.300Z,4.60
2022-11-09T03:17:32.712Z,4.70
2022-11-09T03:20:01.354Z,4.60
2022-11-09T03:22:30.003Z,4.60
2022-11-09T03:24:58.505Z,4.80
2022-11-09T03:27:26.839Z,4.30
2022-11-09T03:29:55.739Z,4.50
2022-11-09T03:32:24.076Z,4.80
2022-11-09T03:34:52.422Z,4.50
2022-11-09T03:37:20.801Z,4.60
2022-11-09T03:39:49.607Z,4.70
2022-11-09T03:42:17.963Z,4.90
2022-11-09T03:44:46.199Z,4.70
2022-11-09T03:47:15.035Z,4.70
2022-11-09T03:49:43.395Z,4.90
2022-11-09T03:52:11.625Z,4.70
2022-11-09T03:54:39.938Z,4.70
2022-11-09T03:57:08.498Z,5.00
2022-11-09T03:59:36.824Z,4.30
2022-11-09T04:02:05.220Z,4.70
2022-11-09T04:04:33.585Z,4.80
2022-11-09T04:07:02.176Z,4.30
2022-11-09T04:09:30.677Z,4.50
2022-11-09T04:11:59.026Z,4.40
2022-11-09T04:14:27.309Z,3.90
2022-11-09T04:16:55.632Z,4.20
2022-11-09T04:19:24.266Z,4.10
2022-11-09T04:21:52.525Z,4.20
2022-11-09T04:24:21.477Z,4.20
2022-11-09T04:26:49.911Z,4.10
2022-11-09T04:29:18.313Z,4.00
2022-11-09T04:31:48.862Z,4.10
2022-11-09T04:34:18.372Z,4.00
2022-11-09T04:36:46.681Z,4.20
2022-11-09T04:39:15.072Z,4.60
2022-11-09T04:41:43.413Z,4.40
2022-11-09T04:44:11.671Z,4.80
2022-11-09T04:46:39.900Z,4.50
2022-11-09T04:49:09.049Z,4.60
2022-11-09T04:51:37.416Z,4.70
2022-11-09T04:54:05.707Z,4.70
2022-11-09T04:56:34.386Z,4.70
2022-11-09T04:59:02.593Z,5.00
2022-11-09T05:01:30.903Z,4.70
2022-11-09T05:03:59.298Z,4.80
2022-11-09T05:06:33.677Z,5.10
2022-11-09T05:09:05.746Z,5.00
2022-11-09T05:11:36.292Z,4.90
2022-11-09T05:14:05.196Z,4.60
2022-11-09T05:16:33.870Z,4.80
2022-11-09T05:19:02.291Z,4.60
2022-11-09T05:21:30.623Z,4.40
2022-11-09T05:24:03.126Z,4.70
2022-11-09T05:26:40.014Z,5.10
2022-11-09T05:29:10.932Z,4.40
2022-11-09T05:31:40.543Z,4.30
2022-11-09T05:34:14.872Z,4.20
2022-11-09T05:36:43.279Z,4.40
2022-11-09T05:39:11.647Z,4.40
2022-11-09T05:41:39.912Z,4.40
2022-11-09T05:44:08.331Z,4.60
2022-11-09T05:46:36.973Z,4.50
2022-11-09T05:49:05.327Z,4.70
2022-11-09T05:51:33.719Z,4.90
2022-11-09T05:54:01.979Z,4.70
2022-11-09T05:56:30.727Z,4.80
2022-11-09T05:58:59.030Z,4.70
2022-11-09T06:01:27.337Z,4.70
2022-11-09T06:03:55.727Z,4.40
2022-11-09T06:06:24.348Z,4.60
2022-11-09T06:08:52.614Z,4.70
2022-11-09T06:11:23.978Z,4.70
2022-11-09T06:13:53.299Z,4.40
2022-11-09T06:16:21.716Z,4.30
2022-11-09T06:18:50.062Z,4.10
2022-11-09T06:21:18.408Z,3.90
2022-11-09T06:23:46.839Z,4.00
2022-11-09T06:26:15.461Z,4.30
2022-11-09T06:28:43.911Z,4.00
2022-11-09T06:31:14.562Z,4.40
2022-11-09T06:33:42.910Z,3.90
2022-11-09T06:36:11.658Z,4.20
2022-11-09T06:38:40.666Z,4.00
2022-11-09T06:41:10.921Z,4.70
2022-11-09T06:43:39.362Z,4.70
2022-11-09T06:46:07.767Z,4.40
2022-11-09T06:48:35.997Z,4.70
2022-11-09T06:51:05.731Z,4.50
2022-11-09T06:53:35.188Z,4.70
2022-11-09T06:56:05.303Z,5.20
2022-11-09T06:58:34.156Z,4.70
2022-11-09T07:01:15.750Z,4.50
2022-11-09T07:03:44.126Z,5.00
2022-11-09T07:06:14.181Z,4.90
2022-11-09T07:08:42.778Z,4.90
2022-11-09T07:11:13.908Z,5.60
2022-11-09T07:13:43.058Z,4.80
2022-11-09T07:16:12.931Z,5.10
2022-11-09T07:21:13.996Z,5.00
2022-11-09T07:23:43.532Z,4.90
2022-11-09T07:26:11.807Z,4.50
2022-11-09T07:28:40.217Z,4.50
2022-11-09T07:31:09.566Z,5.10
2022-11-09T07:33:37.877Z,4.50
2022-11-09T07:36:06.632Z,4.80
2022-11-09T07:38:34.996Z,5.20
2022-11-09T07:41:03.371Z,5.10
2022-11-09T07:43:31.826Z,5.60
2022-11-09T07:46:03.892Z,5.10
2022-11-09T07:48:32.611Z,5.10
2022-11-09T07:51:02.687Z,5.00
2022-11-09T07:53:31.718Z,4.80
2022-11-09T07:56:02.074Z,4.50
2022-11-09T07:58:30.910Z,5.00
2022-11-09T08:00:59.339Z,4.60
2022-11-09T08:03:27.907Z,4.50
2022-11-09T08:05:57.121Z,4.50
2022-11-09T08:08:25.505Z,4.20
2022-11-09T08:10:53.815Z,4.50
2022-11-09T08:13:22.544Z,5.00
2022-11-09T08:15:51.574Z,4.90
2022-11-09T08:18:22.853Z,5.10
2022-11-09T08:20:52.018Z,4.90
2022-11-09T08:23:21.418Z,5.20
2022-11-09T08:25:50.928Z,4.50
2022-11-09T08:28:20.027Z,5.20
2022-11-09T08:30:59.917Z,5.00
2022-11-09T08:35:57.956Z,4.20
2022-11-09T08:38:26.213Z,5.10
2022-11-09T08:40:58.996Z,4.90
2022-11-09T08:43:27.406Z,5.60
2022-11-09T08:45:55.813Z,5.80
2022-11-09T08:48:24.190Z,5.20
2022-11-09T08:50:58.602Z,5.50
2022-11-09T08:53:28.735Z,4.90
2022-11-09T08:55:57.371Z,5.20
2022-11-09T08:58:25.946Z,4.90
2022-11-09T09:00:54.420Z,5.40
2022-11-09T09:03:22.922Z,5.50
2022-11-09T09:05:51.673Z,5.50
2022-11-09T09:08:23.527Z,4.70
2022-11-09T09:10:52.066Z,4.70
2022-11-09T09:13:22.900Z,5.40
2022-11-09T09:15:51.270Z,5.60
2022-11-09T09:18:19.879Z,5.00
2022-11-09T09:20:48.732Z,4.40
2022-11-09T09:23:17.468Z,4.80
2022-11-09T09:25:45.984Z,5.00
2022-11-09T09:28:14.324Z,4.40
2022-11-09T09:30:42.660Z,5.00
2022-11-09T09:33:10.992Z,4.80
2022-11-09T09:35:39.509Z,5.20
2022-11-09T09:38:07.824Z,5.80
2022-11-09T09:40:54.217Z,4.60
2022-11-09T09:43:43.225Z,4.80
2022-11-09T09:46:32.718Z,5.10
2022-11-09T09:49:12.011Z,5.10
2022-11-09T09:51:43.059Z,5.60
2022-11-09T09:54:49.260Z,5.00
2022-11-09T09:57:21.750Z,5.00
2022-11-09T09:59:53.040Z,5.00
2022-11-09T10:02:25.667Z,5.10
2022-11-09T10:05:00.655Z,6.30
2022-11-09T10:07:29.170Z,5.00
2022-11-09T10:10:15.908Z,5.30
2022-11-09T10:12:56.964Z,5.10
2022-11-09T10:15:46.727Z,5.50
2022-11-09T10:20:49.172Z,5.30
2022-11-09T10:23:51.606Z,5.20
2022-11-09T10:26:41.568Z,5.40
2022-11-09T10:29:27.160Z,5.00
2022-11-09T10:32:01.541Z,5.40
2022-11-09T10:34:36.691Z,5.80
2022-11-09T10:37:13.786Z,5.40
2022-11-09T10:40:00.815Z,5.80
2022-11-09T10:42:29.896Z,6.00
2022-11-09T10:45:02.663Z,6.40
2022-11-09T10:47:30.953Z,5.80
2022-11-09T10:50:18.078Z,5.70
2022-11-09T10:52:47.841Z,6.10
2022-11-09T10:55:25.782Z,5.70
2022-11-09T10:58:02.481Z,5.80
2022-11-09T11:00:30.859Z,6.20
2022-11-09T11:03:17.509Z,5.30
2022-11-09T11:05:58.725Z,5.70
2022-11-09T11:08:39.683Z,5.80
2022-11-09T11:11:32.611Z,5.70
2022-11-09T11:14:23.534Z,5.70
2022-11-09T11:16:53.437Z,6.30
2022-11-09T11:19:41.538Z,6.20
2022-11-09T11:22:13.260Z,6.30
2022-11-09T11:24:47.560Z,6.40
2022-11-09T11:27:38.193Z,6.80
2022-11-09T11:30:31.681Z,6.50
2022-11-09T11:33:00.340Z,6.10
2022-11-09T11:35:35.284Z,5.30
2022-11-09T11:38:22.992Z,5.60
2022-11-09T11:41:23.653Z,6.00
2022-11-09T11:44:01.292Z,6.00
2022-11-09T11:46:41.689Z,5.90
2022-11-09T11:49:29.033Z,5.80
2022-11-09T11:52:23.492Z,5.70
2022-11-09T11:54:57.880Z,5.50
2022-11-09T11:57:38.388Z,6.00
2022-11-09T12:00:09.823Z,5.80
2022-11-09T12:02:41.206Z,6.10
2022-11-09T12:05:09.556Z,6.00
2022-11-09T12:07:57.478Z,6.20
2022-11-09T12:10:35.378Z,5.70
2022-11-09T12:13:21.961Z,5.70
2022-11-09T12:16:24.891Z,5.80
2022-11-09T12:19:16.130Z,6.10
2022-11-09T12:21:49.902Z,5.60
2022-11-09T12:24:58.401Z,5.30
2022-11-09T12:27:52.668Z,5.70
2022-11-09T12:30:24.405Z,6.00
2022-11-09T12:33:06.505Z,6.20
2022-11-09T12:35:38.585Z,6.70
2022-11-09T12:38:20.658Z,5.30
2022-11-09T12:41:05.451Z,6.50
2022-11-09T12:43:53.603Z,5.60
2022-11-09T12:46:31.206Z,5.00
2022-11-09T12:49:04.868Z,5.10
2022-11-09T12:51:34.903Z,5.00
2022-11-09T12:54:11.514Z,4.90
2022-11-09T12:56:52.146Z,5.60
2022-11-09T12:59:23.058Z,11.80
2022-11-09T13:02:01.939Z,15.20
2022-11-09T13:04:30.855Z,5.60
2022-11-09T13:07:29.145Z,12.70
2022-11-09T13:10:00.430Z,8.60
2022-11-09T13:12:37.046Z,8.60
2022-11-09T13:15:27.665Z,5.40
2022-11-09T13:17:58.530Z,4.40
2022-11-09T13:23:47.775Z,4.60
2022-11-09T13:26:32.651Z,4.80
2022-11-09T13:29:19.302Z,4.10
2022-11-09T13:32:25.731Z,4.40
2022-11-09T13:35:01.901Z,4.10
2022-11-09T13:37:42.284Z,3.80
2022-11-09T13:40:32.539Z,4.50
2022-11-09T13:43:03.209Z,4.00
2022-11-09T13:45:35.971Z,4.50
2022-11-09T13:48:06.916Z,4.90
2022-11-09T13:50:35.514Z,5.20
2022-11-09T13:53:04.625Z,5.50
2022-11-09T13:55:39.433Z,6.30
2022-11-09T13:58:10.698Z,6.80
2022-11-09T14:00:46.533Z,6.70
2022-11-09T14:03:19.871Z,5.20
2022-11-09T14:05:58.098Z,5.50
2022-11-09T14:08:30.542Z,6.90
2022-11-09T14:11:17.752Z,5.60
2022-11-09T14:14:08.217Z,5.10
2022-11-09T14:17:04.280Z,5.60
2022-11-09T14:19:48.260Z,4.80
2022-11-09T14:22:19.870Z,5.10
2022-11-09T14:24:49.253Z,5.30
2022-11-09T14:27:22.254Z,5.50
2022-11-09T14:29:54.101Z,5.60
2022-11-09T14:32:36.980Z,6.30
2022-11-09T14:35:36.916Z,5.70
2022-11-09T14:40:54.265Z,5.40
2022-11-09T14:43:29.005Z,5.10
2022-11-09T14:46:03.119Z,4.80
2022-11-09T14:48:33.412Z,6.10
2022-11-09T14:51:04.334Z,6.20
2022-11-09T14:53:37.052Z,6.90
2022-11-09T14:56:07.457Z,6.60
2022-11-09T14:58:40.918Z,7.20
2022-11-09T15:01:20.295Z,6.80
2022-11-09T15:04:17.088Z,6.40
2022-11-09T15:06:53.083Z,5.40
2022-11-09T15:09:42.143Z,6.20
2022-11-09T15:12:15.965Z,5.70
2022-11-09T15:14:50.683Z,5.80
2022-11-09T15:17:23.113Z,5.50
2022-11-09T15:19:58.650Z,5.50
2022-11-09T15:22:55.404Z,5.40
2022-11-09T15:25:57.845Z,5.60
2022-11-09T15:28:29.180Z,5.40
2022-11-09T15:31:01.336Z,6.60
2022-11-09T15:33:35.607Z,6.60
2022-11-09T15:36:24.750Z,6.70
2022-11-09T15:39:06.301Z,7.40
2022-11-09T15:41:35.268Z,7.10
2022-11-09T15:44:04.609Z,7.20
2022-11-09T15:46:38.002Z,7.30
2022-11-09T15:49:21.410Z,7.20
2022-11-09T15:51:50.758Z,7.90
2022-11-09T15:54:20.124Z,7.00
2022-11-09T15:56:48.800Z,8.10
2022-11-09T15:59:25.489Z,7.70
2022-11-09T16:01:53.965Z,8.30
2022-11-09T16:04:22.556Z,7.80
2022-11-09T16:06:51.020Z,7.90
2022-11-09T16:09:19.417Z,7.20
2022-11-09T16:11:50.034Z,8.40
2022-11-09T16:14:20.624Z,8.30
2022-11-09T16:16:49.572Z,8.10
2022-11-09T16:19:17.908Z,7.20
2022-11-09T16:21:46.484Z,7.40
2022-11-09T16:24:16.662Z,7.50
2022-11-09T16:26:45.849Z,8.30
2022-11-09T16:29:14.367Z,8.00
2022-11-09T16:31:51.688Z,7.10
2022-11-09T16:34:21.233Z,6.90
2022-11-09T16:36:56.432Z,7.10
2022-11-09T16:39:26.075Z,7.50
2022-11-09T16:41:54.795Z,7.40
2022-11-09T16:44:24.407Z,8.50
2022-11-09T16:46:52.819Z,7.60
2022-11-09T16:49:21.301Z,7.20
2022-11-09T16:51:49.751Z,7.80
2022-11-09T16:54:18.138Z,8.20
2022-11-09T16:56:48.312Z,7.50
2022-11-09T16:59:16.926Z,8.20
2022-11-09T17:01:56.854Z,7.90
2022-11-09T17:04:26.494Z,7.50
2022-11-09T17:06:54.999Z,8.90
2022-11-09T17:09:23.366Z,9.20
2022-11-09T17:11:52.440Z,9.10
2022-11-09T17:14:20.793Z,8.00
2022-11-09T17:16:49.333Z,8.50
2022-11-09T17:19:17.771Z,8.50
2022-11-09T17:21:46.178Z,7.50
2022-11-09T17:24:15.139Z,8.50
2022-11-09T17:26:43.611Z,8.80
2022-11-09T17:29:12.937Z,9.20
2022-11-09T17:31:41.270Z,9.50
2022-11-09T17:34:09.783Z,7.70
2022-11-09T17:39:27.235Z,8.10
2022-11-09T17:41:55.518Z,8.60
2022-11-09T17:44:23.814Z,8.70
2022-11-09T17:46:52.762Z,8.80
2022-11-09T17:49:21.122Z,8.70
2022-11-09T17:51:49.503Z,8.60
2022-11-09T17:54:17.945Z,8.30
2022-11-09T17:56:46.284Z,8.20
2022-11-09T17:59:14.621Z,8.90
2022-11-09T18:01:43.074Z,7.90
2022-11-09T18:04:11.671Z,7.60
2022-11-09T18:06:40.444Z,8.70
2022-11-09T18:09:39.503Z,7.90
2022-11-09T18:11:57.390Z,8.30
2022-11-09T18:14:25.829Z,8.20
2022-11-09T18:16:54.235Z,8.30
2022-11-09T18:19:22.550Z,8.10
2022-11-09T18:21:50.990Z,8.80
2022-11-09T18:24:19.298Z,9.60
2022-11-09T18:26:48.008Z,8.60
2022-11-09T18:29:16.373Z,8.60
2022-11-09T18:31:44.681Z,8.60
2022-11-09T18:34:13.078Z,8.90
2022-11-09T18:36:41.466Z,9.00
2022-11-09T18:39:09.727Z,8.50
2022-11-09T18:41:38.052Z,8.70
2022-11-09T18:44:06.531Z,8.40
2022-11-09T18:46:35.665Z,8.70
2022-11-09T18:49:08.905Z,8.00
2022-11-09T18:51:40.133Z,7.80
2022-11-09T18:54:08.408Z,8.50
2022-11-09T18:56:36.823Z,8.10
2022-11-09T18:59:05.415Z,8.50
2022-11-09T19:01:33.716Z,8.60
2022-11-09T19:04:02.143Z,7.90
2022-11-09T19:06:30.576Z,8.60
2022-11-09T19:09:17.552Z,9.10
2022-11-09T19:11:45.916Z,9.00
2022-11-09T19:14:14.174Z,8.30
2022-11-09T19:16:42.620Z,8.80
2022-11-09T19:19:15.772Z,10.90
2022-11-09T19:21:49.455Z,12.50
2022-11-09T19:24:20.510Z,8.30
2022-11-09T19:26:50.014Z,8.10
2022-11-09T19:29:18.815Z,7.70
2022-11-09T19:31:48.828Z,7.90
2022-11-09T19:34:20.858Z,8.50
2022-11-09T19:36:49.361Z,7.70
2022-11-09T19:39:18.271Z,7.70
2022-11-09T19:41:46.692Z,7.90
2022-11-09T19:44:15.347Z,7.60
2022-11-09T19:46:44.442Z,7.60
2022-11-09T19:49:12.788Z,8.10
2022-11-09T19:51:41.153Z,7.40
2022-11-09T19:54:11.715Z,8.00
2022-11-09T19:56:40.277Z,8.10
2022-11-09T19:59:13.287Z,8.00
2022-11-09T20:01:42.835Z,8.70
2022-11-09T20:05:27.610Z,9.00
2022-11-09T20:07:56.134Z,8.70
2022-11-09T20:10:25.147Z,8.40
2022-11-09T20:12:55.755Z,8.10
2022-11-09T20:15:26.993Z,7.90
2022-11-09T20:17:55.466Z,8.50
2022-11-09T20:20:23.885Z,7.70
2022-11-09T20:25:58.963Z,6.80
2022-11-09T20:28:47.557Z,7.10
2022-11-09T20:35:20.984Z,7.60
2022-11-09T20:40:59.220Z,6.80
2022-11-09T20:45:57.072Z,7.20
2022-11-09T20:48:52.271Z,7.60
2022-11-09T20:51:19.010Z,6.80
2022-11-09T20:53:49.822Z,7.00
2022-11-09T20:56:19.883Z,6.50
2022-11-09T20:58:48.383Z,7.00
2022-11-09T21:01:48.560Z,7.10
2022-11-09T21:04:40.596Z,6.20
2022-11-09T21:07:11.383Z,6.70
2022-11-09T21:09:42.029Z,6.50
2022-11-09T21:12:22.624Z,6.10
2022-11-09T21:14:51.783Z,6.50
2022-11-09T21:17:20.392Z,5.90
2022-11-09T21:19:49.055Z,6.20
2022-11-09T21:22:17.633Z,6.20
2022-11-09T21:25:04.704Z,6.50
2022-11-09T21:27:51.880Z,6.40
2022-11-09T21:30:43.155Z,5.90
2022-11-09T21:33:19.721Z,5.50
2022-11-09T21:35:51.700Z,6.40
2022-11-09T21:38:36.081Z,5.40
2022-11-09T21:44:15.847Z,5.30
2022-11-09T21:46:44.907Z,5.40
2022-11-09T21:49:20.175Z,5.70
2022-11-09T22:32:42.256Z,5.60
2022-11-09T22:35:14.087Z,5.60
2022-11-09T22:37:52.270Z,5.30
2022-11-09T22:40:26.640Z,5.70
2022-11-09T22:42:58.592Z,5.80
2022-11-09T22:49:37.066Z,5.50
2022-11-09T22:52:41.925Z,6.00
2022-11-09T22:55:15.837Z,6.10
2022-11-09T22:57:55.497Z,5.40
2022-11-09T23:00:48.153Z,5.80
2022-11-09T23:03:21.341Z,5.90
2022-11-09T23:06:02.287Z,5.90
2022-11-09T23:11:58.470Z,5.90
2022-11-09T23:21:39.594Z,6.20
2022-11-09T23:24:31.747Z,6.10
2022-11-09T23:27:27.878Z,5.70
2022-11-09T23:29:56.817Z,5.80
2022-11-09T23:33:07.333Z,6.50
2022-11-09T23:35:46.696Z,5.70
2022-11-09T23:40:51.014Z,5.50
2022-11-09T23:43:24.314Z,5.90
2022-11-09T23:45:54.964Z,5.80
2022-11-09T23:48:24.687Z,5.50
2022-11-09T23:51:02.533Z,5.90
2022-11-09T23:53:34.142Z,6.20
2022-11-09T23:56:12.640Z,6.30
2022-11-09T23:58:41.617Z,6.30
